createdAt,value
2018-07-04T04:19:37.204Z,62.50
2018-07-04T04:22:17.385Z,62.30
2018-07-04T04:24:57.463Z,62.10
2018-07-04T04:27:37.736Z,61.80
2018-07-04T04:30:18.054Z,60.70
2018-07-04T04:32:58.077Z,61.20
2018-07-04T04:35:38.338Z,60.60
2018-07-04T04:38:18.705Z,59.70
2018-07-04T04:40:58.828Z,59.40
2018-07-04T04:43:38.992Z,59.10
2018-07-04T04:46:19.247Z,58.70
2018-07-04T04:48:59.527Z,58.70
2018-07-04T04:51:39.777Z,58.80
2018-07-04T04:54:20.016Z,58.20
2018-07-04T04:57:00.069Z,59.00
2018-07-04T04:59:40.575Z,61.20
2018-07-04T05:02:20.708Z,62.20
2018-07-04T05:05:00.975Z,63.50
2018-07-04T05:07:41.288Z,64.60
2018-07-04T05:10:22.084Z,65.60
2018-07-04T05:13:02.593Z,65.00
2018-07-04T05:15:43.185Z,63.70
2018-07-04T05:18:23.363Z,64.70
2018-07-04T05:21:03.832Z,64.00
2018-07-04T05:23:44.162Z,62.20
2018-07-04T05:26:24.233Z,62.10
2018-07-04T05:29:04.476Z,62.10
2018-07-04T05:31:44.806Z,61.20
2018-07-04T05:34:25.068Z,60.60
2018-07-04T05:37:05.348Z,59.90
2018-07-04T05:39:45.863Z,60.10
2018-07-04T05:42:26.177Z,60.60
2018-07-04T05:45:06.349Z,61.70
2018-07-04T05:47:46.553Z,61.70
2018-07-04T05:50:26.784Z,61.70
2018-07-04T05:53:07.085Z,61.50
2018-07-04T05:55:47.435Z,59.80
2018-07-04T05:58:27.914Z,59.90
2018-07-04T06:01:08.330Z,60.60
2018-07-04T06:03:48.288Z,61.60
2018-07-04T06:06:28.509Z,61.20
2018-07-04T06:09:08.838Z,61.50
2018-07-04T06:11:49.149Z,61.00
2018-07-04T06:14:29.423Z,61.30
2018-07-04T06:17:09.805Z,59.70
2018-07-04T06:19:50.112Z,59.40
2018-07-04T06:22:30.365Z,59.10
2018-07-04T06:25:10.504Z,59.10
2018-07-04T06:27:50.732Z,58.10
2018-07-04T06:30:31.050Z,58.70
2018-07-04T06:33:11.145Z,58.10
2018-07-04T06:35:51.393Z,57.80
2018-07-04T06:38:19.229Z,57.50
2018-07-04T06:40:47.017Z,57.50
2018-07-04T06:43:14.768Z,57.70
2018-07-04T06:45:42.552Z,57.70
2018-07-04T06:48:10.348Z,57.20
2018-07-04T06:50:38.209Z,56.90
2018-07-04T06:53:05.973Z,55.90
2018-07-04T06:55:33.740Z,53.80
2018-07-04T06:58:01.512Z,54.20
2018-07-04T07:00:29.271Z,53.50
2018-07-04T07:03:09.445Z,52.50
2018-07-04T07:05:49.808Z,50.30
2018-07-04T07:08:30.012Z,49.90
2018-07-04T07:11:10.248Z,50.50
2018-07-04T07:13:50.483Z,46.40
2018-07-04T07:16:30.796Z,47.80
2018-07-04T07:19:11.125Z,46.90
2018-07-04T07:21:51.601Z,46.70
2018-07-04T07:24:31.665Z,45.90
2018-07-04T07:27:12.008Z,47.50
2018-07-04T07:29:52.116Z,48.40
2018-07-04T07:32:32.567Z,51.60
2018-07-04T07:42:54.926Z,53.20
2018-07-04T07:45:35.213Z,58.50
2018-07-04T07:48:15.424Z,57.30
2018-07-04T07:50:55.617Z,59.20
2018-07-04T07:53:35.813Z,59.20
2018-07-04T07:56:16.104Z,59.80
2018-07-04T07:58:56.450Z,62.10
2018-07-04T08:01:36.796Z,63.70
2018-07-04T08:04:17.180Z,63.90
2018-07-04T08:06:57.305Z,64.60
2018-07-04T08:09:37.666Z,65.20
2018-07-04T08:12:18.239Z,66.60
2018-07-04T08:14:58.514Z,67.60
2018-07-04T08:17:38.859Z,68.70
2018-07-04T08:20:19.056Z,68.30
2018-07-04T08:22:59.388Z,67.90
2018-07-04T08:25:39.455Z,67.50
2018-07-04T08:30:53.891Z,68.70
2018-07-04T08:33:33.940Z,68.20
2018-07-04T08:36:14.174Z,69.00
2018-07-04T08:38:54.519Z,68.70
2018-07-04T08:41:34.872Z,67.90
2018-07-04T08:44:14.964Z,67.00
2018-07-04T08:46:55.227Z,65.90
2018-07-04T08:49:35.520Z,63.50
2018-07-04T08:52:15.776Z,61.50
2018-07-04T08:57:30.253Z,62.40
2018-07-04T09:00:10.576Z,63.80
2018-07-04T09:02:50.618Z,63.50
2018-07-04T09:05:30.830Z,63.80
2018-07-04T09:08:11.192Z,62.80
2018-07-04T09:10:51.169Z,60.70
2018-07-04T09:13:31.471Z,58.80
2018-07-04T09:16:11.634Z,58.20
2018-07-04T09:18:52.009Z,59.40
2018-07-04T09:21:32.701Z,59.60
2018-07-04T09:24:12.876Z,59.30
2018-07-04T09:26:53.185Z,59.00
2018-07-04T09:29:33.429Z,59.00
2018-07-04T09:32:13.572Z,58.50
2018-07-04T09:34:53.798Z,58.90
2018-07-04T09:37:34.165Z,59.30
2018-07-04T09:40:14.268Z,57.50
2018-07-04T09:42:54.561Z,57.40
2018-07-04T09:45:34.872Z,58.00
2018-07-04T09:48:15.126Z,54.60
2018-07-04T09:50:55.330Z,53.20
2018-07-04T09:53:35.518Z,52.60
2018-07-04T09:56:15.893Z,52.60
2018-07-04T09:58:55.990Z,52.20
2018-07-04T10:01:36.851Z,45.40
2018-07-04T10:04:16.919Z,47.60
2018-07-04T10:06:57.085Z,46.70
2018-07-04T10:09:37.406Z,49.00
2018-07-04T10:12:17.739Z,47.20
2018-07-04T10:14:57.803Z,45.70
2018-07-04T10:17:38.106Z,46.40
2018-07-04T10:20:18.262Z,46.90
2018-07-04T10:22:58.397Z,46.40
2018-07-04T10:25:38.539Z,46.30
2018-07-04T11:14:23.528Z,46.90
2018-07-04T11:17:03.967Z,40.80
2018-07-04T11:19:44.294Z,40.90
2018-07-04T11:22:24.451Z,41.10
2018-07-04T11:25:04.653Z,40.80
2018-07-04T11:27:44.836Z,41.20
2018-07-04T11:30:25.134Z,40.90
2018-07-04T11:33:05.412Z,40.80
2018-07-04T11:35:45.576Z,41.40
2018-07-04T11:38:25.890Z,42.10
2018-07-04T11:41:06.308Z,42.30
2018-07-04T11:43:46.585Z,43.00
2018-07-04T11:46:14.379Z,42.50
2018-07-04T11:48:42.154Z,42.30
2018-07-04T11:51:10.092Z,42.40
2018-07-04T11:53:37.865Z,41.80
2018-07-04T11:56:05.700Z,41.80
2018-07-04T11:58:33.470Z,42.70
2018-07-04T12:01:01.284Z,43.00
2018-07-04T12:03:29.091Z,43.70
2018-07-04T12:06:09.196Z,44.10
2018-07-04T12:08:36.987Z,44.10
2018-07-04T12:11:04.767Z,44.30
2018-07-04T12:13:32.532Z,44.00
2018-07-04T12:16:00.309Z,44.70
2018-07-04T12:18:28.071Z,45.10
2018-07-04T12:20:55.884Z,45.80
2018-07-04T12:25:51.760Z,46.10
2018-07-04T12:30:47.554Z,52.60
2018-07-04T13:00:51.105Z,69.50
2018-07-04T13:03:31.212Z,76.60
2018-07-04T13:06:11.581Z,76.90
2018-07-04T13:08:51.861Z,77.00
2018-07-04T13:11:32.057Z,76.50
2018-07-04T13:14:12.594Z,77.10
2018-07-04T13:16:53.180Z,75.20
2018-07-04T13:19:33.561Z,74.00
2018-07-04T13:22:13.723Z,72.90
2018-07-04T13:24:53.956Z,70.10
2018-07-04T13:27:34.184Z,68.50
2018-07-04T13:30:14.387Z,67.80
2018-07-04T13:32:54.694Z,67.40
2018-07-04T13:35:34.965Z,68.10
2018-07-04T13:38:15.247Z,65.10
2018-07-04T13:40:55.358Z,66.40
2018-07-04T13:43:35.977Z,66.40
2018-07-04T13:46:16.290Z,65.20
2018-07-04T13:48:56.633Z,63.50
2018-07-04T13:51:36.807Z,62.40
2018-07-04T13:54:17.047Z,62.70
2018-07-04T13:56:57.524Z,61.00
2018-07-04T13:59:37.608Z,61.70
2018-07-04T14:02:18.023Z,61.00
2018-07-04T14:04:58.404Z,59.30
2018-07-04T14:07:38.804Z,59.50
2018-07-04T14:10:19.127Z,60.70
2018-07-04T14:12:59.342Z,60.40
2018-07-04T14:15:39.572Z,59.80
2018-07-04T14:18:19.856Z,60.10
2018-07-04T14:21:00.068Z,61.20
2018-07-04T14:23:40.365Z,62.30
2018-07-04T14:26:20.701Z,61.90
2018-07-04T14:29:01.135Z,61.00
2018-07-04T14:31:41.484Z,59.70
2018-07-04T14:34:21.736Z,58.90
2018-07-04T14:37:02.095Z,59.80
2018-07-04T14:39:42.417Z,59.10
2018-07-04T14:42:22.799Z,58.20
2018-07-04T14:45:03.262Z,57.60
2018-07-04T14:47:43.610Z,57.50
2018-07-04T14:50:23.768Z,57.40
2018-07-04T16:15:16.688Z,55.90
